createdAt,value
2022-09-26T00:05:21.648Z,98601.7
2022-09-26T00:10:56.658Z,98596.4
2022-09-26T00:16:32.256Z,98585.4
2022-09-26T00:22:08.166Z,98571.5
2022-09-26T00:27:43.271Z,98571
2022-09-26T00:33:19.011Z,98564.3
2022-09-26T00:38:53.883Z,98566.5
2022-09-26T00:44:29.686Z,98556.8
2022-09-26T00:50:04.501Z,98548.8
2022-09-26T00:55:39.775Z,98548.2
2022-09-26T01:01:16.134Z,98548.7
2022-09-26T01:06:53.541Z,98536.8
2022-09-26T01:12:28.823Z,98538.9
2022-09-26T01:18:03.932Z,98535.8
2022-09-26T01:23:39.170Z,98529.8
2022-09-26T01:29:14.977Z,98539.1
2022-09-26T01:34:50.206Z,98550.8
2022-09-26T01:40:25.943Z,98547.1
2022-09-26T01:46:02.530Z,98542.3
2022-09-26T01:51:38.472Z,98550.7
2022-09-26T01:57:13.279Z,98551.7
2022-09-26T02:02:48.637Z,98549.3
2022-09-26T02:08:24.161Z,98547.6
2022-09-26T02:13:59.164Z,98546.5
2022-09-26T02:19:35.065Z,98546.7
2022-09-26T02:25:10.060Z,98544.2
2022-09-26T02:30:45.297Z,98536.9
2022-09-26T02:36:20.296Z,98536.5
2022-09-26T02:41:56.557Z,98533
2022-09-26T02:47:31.693Z,98528.4
2022-09-26T02:53:07.545Z,98524.3
2022-09-26T02:58:42.506Z,98526.6
2022-09-26T03:04:17.807Z,98532.2
2022-09-26T03:09:53.406Z,98534.3
2022-09-26T03:15:28.642Z,98534.4
2022-09-26T03:21:03.383Z,98531.1
2022-09-26T03:26:38.254Z,98529.7
2022-09-26T03:32:14.314Z,98526
2022-09-26T03:37:50.368Z,98521.9
2022-09-26T03:43:26.173Z,98518.4
2022-09-26T03:49:01.463Z,98516
2022-09-26T03:54:36.458Z,98515.5
2022-09-26T04:00:11.621Z,98518.7
2022-09-26T04:05:47.654Z,98515.9
2022-09-26T04:11:22.693Z,98518.6
2022-09-26T04:16:58.159Z,98513.7
2022-09-26T04:22:33.606Z,98507.9
2022-09-26T04:28:08.671Z,98505.6
2022-09-26T04:33:44.543Z,98501.1
2022-09-26T04:39:19.347Z,98500.5
2022-09-26T04:44:54.446Z,98500.6
2022-09-26T04:50:29.582Z,98501.7
2022-09-26T04:56:04.714Z,98501.9
2022-09-26T05:01:49.124Z,98495.4
2022-09-26T05:07:24.809Z,98488
2022-09-26T05:12:59.878Z,98483.6
2022-09-26T05:18:34.578Z,98481.8
2022-09-26T05:24:17.846Z,98479.2
2022-09-26T05:30:13.770Z,98475.6
2022-09-26T05:35:57.378Z,98474.2
2022-09-26T05:41:32.462Z,98478.1
2022-09-26T05:47:08.326Z,98476.5
2022-09-26T05:52:44.452Z,98479.5
2022-09-26T05:58:19.799Z,98473.3
2022-09-26T06:03:55.181Z,98470.4
2022-09-26T06:09:30.384Z,98469
2022-09-26T06:15:05.061Z,98465.6
2022-09-26T06:20:40.046Z,98465.7
2022-09-26T06:26:15.799Z,98462.9
2022-09-26T06:31:51.649Z,98464.4
2022-09-26T06:37:27.866Z,98461.5
2022-09-26T06:43:02.878Z,98462.1
2022-09-26T06:48:37.813Z,98474.3
2022-09-26T06:54:13.241Z,98486.6
2022-09-26T06:59:48.044Z,98495.6
2022-09-26T07:05:22.823Z,98503.2
2022-09-26T07:11:50.850Z,98510.3
2022-09-26T07:17:51.144Z,98516.5
2022-09-26T07:23:26.324Z,98518
2022-09-26T07:29:01.536Z,98510
2022-09-26T07:34:36.479Z,98513.1
2022-09-26T07:40:12.223Z,98523.8
2022-09-26T07:45:48.126Z,98524
2022-09-26T07:51:26.091Z,98523.2
2022-09-26T07:57:03.169Z,98527.8
2022-09-26T08:02:39.014Z,98522.2
2022-09-26T08:08:14.768Z,98534.5
2022-09-26T08:13:49.995Z,98537.7
2022-09-26T08:19:25.248Z,98543.7
2022-09-26T08:25:00.273Z,98546.4
2022-09-26T08:30:36.368Z,98544.7
2022-09-26T08:36:11.450Z,98543.7
2022-09-26T08:41:46.394Z,98549.7
2022-09-26T08:47:21.511Z,98548.7
2022-09-26T08:52:56.765Z,98549.5
2022-09-26T08:58:34.316Z,98549.4
2022-09-26T09:04:11.922Z,98553.4
2022-09-26T09:09:47.766Z,98559.4
2022-09-26T09:15:27.067Z,98555.6
2022-09-26T09:21:03.315Z,98555.9
2022-09-26T09:27:55.431Z,98565.4
2022-09-26T09:33:46.844Z,98562
2022-09-26T09:39:21.933Z,98563.5
2022-09-26T09:44:58.043Z,98565.1
2022-09-26T09:50:35.681Z,98558.7
2022-09-26T09:56:13.512Z,98555.8
2022-09-26T10:01:49.570Z,98557.3
2022-09-26T10:07:24.290Z,98552.1
2022-09-26T10:13:00.198Z,98544.6
2022-09-26T10:18:35.414Z,98542.2
2022-09-26T10:24:10.450Z,98538.4
2022-09-26T10:29:45.392Z,98535.6
2022-09-26T10:35:21.353Z,98533.1
2022-09-26T10:40:56.842Z,98535.7
2022-09-26T10:46:35.089Z,98526.3
2022-09-26T10:52:21.882Z,98518.6
2022-09-26T10:57:57.731Z,98516.1
2022-09-26T11:03:37.151Z,98513.1
2022-09-26T11:09:12.987Z,98497.1
2022-09-26T11:14:47.918Z,98495.3
2022-09-26T11:20:27.991Z,98501.9
2022-09-26T11:26:03.405Z,98485.7
2022-09-26T11:31:39.091Z,98483.9
2022-09-26T11:37:15.193Z,98480.2
2022-09-26T11:42:52.352Z,98477.3
2022-09-26T11:48:27.658Z,98474.9
2022-09-26T11:54:03.064Z,98473.9
2022-09-26T11:59:38.086Z,98467.3
2022-09-26T12:05:17.587Z,98469.9
2022-09-26T12:10:52.672Z,98468.6
2022-09-26T12:16:28.348Z,98468.8
2022-09-26T12:22:05.169Z,98464
2022-09-26T12:27:40.259Z,98460.4
2022-09-26T12:33:15.960Z,98455.5
2022-09-26T12:38:57.250Z,98450.9
2022-09-26T12:44:32.471Z,98441.5
2022-09-26T12:50:07.427Z,98437
2022-09-26T12:55:42.491Z,98444.9
2022-09-26T13:01:18.221Z,98441.9
2022-09-26T13:07:20.911Z,98442.1
2022-09-26T13:12:56.377Z,98438.3
2022-09-26T13:18:36.230Z,98434.7
2022-09-26T13:24:11.732Z,98435.1
2022-09-26T13:29:47.426Z,98435.8
2022-09-26T13:35:22.428Z,98435.5
2022-09-26T13:40:58.511Z,98427.9
2022-09-26T13:46:35.765Z,98430.6
2022-09-26T13:52:11.574Z,98428.1
2022-09-26T13:57:46.597Z,98414.2
2022-09-26T14:03:22.899Z,98435
2022-09-26T14:08:59.525Z,98425.5
2022-09-26T14:14:34.839Z,98425.8
2022-09-26T14:20:09.862Z,98421.9
2022-09-26T14:25:44.786Z,98418
2022-09-26T14:34:30.855Z,98417.5
2022-09-26T14:40:06.940Z,98409.5
2022-09-26T14:45:41.525Z,98397.8
2022-09-26T14:51:16.602Z,98405.6
2022-09-26T14:56:51.792Z,98408.5
2022-09-26T15:02:27.611Z,98399.8
2022-09-26T15:08:04.298Z,98414.2
2022-09-26T15:13:39.206Z,98405.7
2022-09-26T15:19:14.072Z,98413
2022-09-26T15:24:49.253Z,98409
2022-09-26T15:30:25.739Z,98404.7
2022-09-26T15:36:00.755Z,98415
2022-09-26T15:41:35.876Z,98403.8
2022-09-26T15:47:11.857Z,98403.6
2022-09-26T15:52:46.931Z,98407.6
2022-09-26T15:58:22.127Z,98409.8
2022-09-26T16:03:56.978Z,98408.8
2022-09-26T16:09:33.265Z,98407.2
2022-09-26T16:15:08.388Z,98421
2022-09-26T16:20:43.305Z,98424
2022-09-26T16:26:18.467Z,98421.2
2022-09-26T16:31:54.167Z,98421
2022-09-26T16:37:28.835Z,98423.9
2022-09-26T16:43:03.668Z,98429
2022-09-26T16:48:38.319Z,98427.1
2022-09-26T16:54:14.837Z,98425.9
2022-09-26T16:59:50.633Z,98437.7
2022-09-26T17:05:25.520Z,98449
2022-09-26T17:11:00.177Z,98446.2
2022-09-26T17:16:34.887Z,98452.1
2022-09-26T17:22:09.873Z,98460.7
2022-09-26T17:27:44.688Z,98464.9
2022-09-26T17:33:21.261Z,98468.7
2022-09-26T17:38:57.324Z,98472.1
2022-09-26T17:44:35.122Z,98472.7
2022-09-26T17:50:14.017Z,98478.9
2022-09-26T17:55:50.997Z,98482.5
2022-09-26T18:01:27.921Z,98489.8
2022-09-26T18:07:03.408Z,98503.3
2022-09-26T18:12:38.563Z,98499.7
2022-09-26T18:18:14.569Z,98504.4
2022-09-26T18:23:49.314Z,98508.7
2022-09-26T18:29:24.471Z,98510.2
2022-09-26T18:34:59.540Z,98508.6
2022-09-26T18:40:35.229Z,98508
2022-09-26T18:46:22.066Z,98506.9
2022-09-26T18:51:57.944Z,98511.3
2022-09-26T18:57:33.614Z,98510.2
2022-09-26T19:03:08.384Z,98518
2022-09-26T19:08:43.243Z,98517.1
2022-09-26T19:14:18.179Z,98520.7
2022-09-26T19:19:53.091Z,98510.8
2022-09-26T19:25:28.028Z,98496.3
2022-09-26T19:31:03.928Z,98503.4
2022-09-26T19:36:39.451Z,98489.8
2022-09-26T19:42:14.532Z,98500.5
2022-09-26T19:47:49.390Z,98498.7
2022-09-26T19:53:26.996Z,98502.3
2022-09-26T19:59:03.348Z,98497.2
2022-09-26T20:04:38.305Z,98498.6
2022-09-26T20:10:13.127Z,98495.8
2022-09-26T20:15:47.951Z,98501.6
2022-09-26T20:21:24.093Z,98504.7
2022-09-26T20:26:59.858Z,98502.9
2022-09-26T20:32:35.730Z,98503.8
2022-09-26T20:38:10.715Z,98493.1
2022-09-26T20:43:45.586Z,98478.8
2022-09-26T20:49:20.260Z,98461
2022-09-26T20:54:55.674Z,98462.9
2022-09-26T21:00:30.474Z,98454.1
2022-09-26T21:06:05.348Z,98441.1
2022-09-26T21:11:40.248Z,98435.7
2022-09-26T21:17:16.611Z,98433.2
2022-09-26T21:22:51.719Z,98427.4
2022-09-26T21:28:27.311Z,98422.7
2022-09-26T21:34:02.533Z,98416.9
2022-09-26T21:39:37.582Z,98417.8
2022-09-26T21:45:17.111Z,98409.9
2022-09-26T21:50:58.871Z,98402.7
2022-09-26T21:56:33.712Z,98390.6
2022-09-26T22:02:08.918Z,98378.8
2022-09-26T22:07:44.659Z,98387.7
2022-09-26T22:13:19.809Z,98385
2022-09-26T22:19:06.484Z,98375.3
2022-09-26T22:24:41.524Z,98391.2
2022-09-26T22:30:16.503Z,98388
2022-09-26T22:35:51.599Z,98379.8
2022-09-26T22:41:26.654Z,98362.3
2022-09-26T22:47:01.459Z,98353.7
2022-09-26T22:52:36.409Z,98330.7
2022-09-26T22:58:11.375Z,98326.8
2022-09-26T23:03:50.287Z,98316.5
2022-09-26T23:09:25.611Z,98295.3
2022-09-26T23:15:00.417Z,98297
2022-09-26T23:20:35.226Z,98278
2022-09-26T23:26:10.143Z,98284.9
2022-09-26T23:31:45.149Z,98277
2022-09-26T23:37:19.887Z,98277.7
2022-09-26T23:42:55.276Z,98279.2
2022-09-26T23:48:30.255Z,98285.6
2022-09-26T23:54:05.024Z,98291.5
2022-09-26T23:59:39.795Z,98289.1
